Terminal Aerodrome Forecast
Issued by NWS Topeka, KS

Home | Current Version | Previous Version | Graphics & Text | Print | Product List | Glossary On
Versions: 1 2 3 4 5 6 7 8 9 10 11 12 13 14 15 16 17 18 19 20 21 22
000
FTUS43 KTOP 252342
TAFTOP
TAF
KTOP 252342Z 2600/2624 02005KT P6SM SCT030 OVC040
     FM260800 06006KT 5SM -SHRA VCTS BKN015 OVC025CB
     FM261500 08005KT P6SM OVC040
     FM262000 14006KT P6SM OVC045=

USA.gov is the U.S. government's official web portal to all federal, state and local government web resources and services.